createdAt,value
2023-04-09T00:02:26.693Z,19.83
2023-04-09T00:04:59.437Z,20.20
2023-04-09T00:07:31.127Z,19.48
2023-04-09T00:10:02.878Z,19.77
2023-04-09T00:12:34.730Z,20.40
2023-04-09T00:15:09.677Z,20.52
2023-04-09T00:17:43.029Z,20.27
2023-04-09T00:20:14.813Z,19.00
2023-04-09T00:22:46.707Z,21.00
2023-04-09T00:25:18.905Z,20.23
2023-04-09T00:27:51.127Z,18.88
2023-04-09T00:30:23.330Z,19.65
2023-04-09T00:32:55.464Z,19.80
2023-04-09T00:35:27.300Z,18.98
2023-04-09T00:37:59.065Z,20.40
2023-04-09T00:40:31.030Z,20.23
2023-04-09T00:43:02.920Z,19.88
2023-04-09T00:45:35.014Z,20.55
2023-04-09T00:48:07.488Z,19.17
2023-04-09T00:50:39.250Z,19.33
2023-04-09T00:53:12.241Z,20.92
2023-04-09T00:55:44.814Z,20.35
2023-04-09T00:58:17.125Z,19.75
2023-04-09T01:00:48.866Z,20.20
2023-04-09T01:03:20.785Z,20.42
2023-04-09T01:06:07.741Z,20.15
2023-04-09T01:08:48.589Z,18.73
2023-04-09T01:11:38.772Z,19.20
2023-04-09T01:14:56.917Z,20.90
2023-04-09T01:17:42.982Z,20.20
2023-04-09T01:20:21.052Z,19.75
2023-04-09T01:23:10.942Z,20.05
2023-04-09T01:25:47.640Z,18.75
2023-04-09T01:28:42.649Z,19.70
2023-04-09T01:31:18.427Z,19.00
2023-04-09T01:33:52.548Z,20.40
2023-04-09T01:36:26.497Z,19.08
2023-04-09T01:39:01.163Z,19.67
2023-04-09T01:41:34.563Z,19.13
2023-04-09T01:44:08.222Z,18.80
2023-04-09T01:46:40.229Z,19.83
2023-04-09T01:49:12.485Z,21.48
2023-04-09T01:51:44.570Z,19.33
2023-04-09T01:54:16.949Z,19.42
2023-04-09T01:56:49.096Z,20.10
2023-04-09T01:59:23.622Z,18.85
2023-04-09T02:02:11.372Z,18.42
2023-04-09T02:04:48.016Z,19.65
2023-04-09T02:07:32.676Z,20.50
2023-04-09T02:10:06.545Z,20.25
2023-04-09T02:12:41.178Z,20.23
2023-04-09T02:15:13.809Z,20.60
2023-04-09T02:17:45.726Z,20.65
2023-04-09T02:20:18.974Z,19.67
2023-04-09T02:22:51.214Z,19.02
2023-04-09T02:25:23.167Z,19.27
2023-04-09T02:27:54.882Z,19.88
2023-04-09T02:30:26.543Z,20.17
2023-04-09T02:32:58.276Z,17.33
2023-04-09T02:35:30.016Z,19.65
2023-04-09T02:38:02.135Z,19.98
2023-04-09T02:40:33.818Z,19.95
2023-04-09T02:43:05.554Z,19.60
2023-04-09T02:45:37.318Z,20.27
2023-04-09T02:48:09.097Z,19.75
2023-04-09T02:50:41.020Z,20.70
2023-04-09T02:53:12.870Z,19.73
2023-04-09T02:55:44.621Z,20.80
2023-04-09T02:58:16.353Z,21.45
2023-04-09T03:00:48.377Z,21.15
2023-04-09T03:03:20.244Z,21.75
2023-04-09T03:05:52.184Z,19.92
2023-04-09T03:08:24.009Z,20.95
2023-04-09T03:10:55.708Z,19.52
2023-04-09T03:13:30.790Z,19.60
2023-04-09T03:16:03.305Z,21.30
2023-04-09T03:18:35.215Z,19.90
2023-04-09T03:21:07.921Z,20.35
2023-04-09T03:23:42.421Z,19.52
2023-04-09T03:26:14.076Z,19.15
2023-04-09T03:28:52.984Z,20.00
2023-04-09T03:31:25.004Z,19.70
2023-04-09T03:33:56.736Z,19.88
2023-04-09T03:36:31.615Z,20.40
2023-04-09T03:39:15.219Z,26.02
2023-04-09T03:41:48.805Z,19.70
2023-04-09T03:44:22.303Z,19.75
2023-04-09T03:47:15.535Z,18.55
2023-04-09T03:49:47.483Z,19.98
2023-04-09T03:52:25.081Z,19.65
2023-04-09T03:55:05.444Z,19.88
2023-04-09T03:57:38.322Z,19.20
2023-04-09T04:00:13.988Z,19.83
2023-04-09T04:03:24.047Z,18.75
2023-04-09T04:06:12.117Z,19.73
2023-04-09T04:09:02.502Z,20.15
2023-04-09T04:11:58.931Z,24.48
2023-04-09T04:14:43.938Z,20.50
2023-04-09T04:17:26.180Z,19.92
2023-04-09T04:19:59.499Z,19.00
2023-04-09T04:22:34.675Z,20.25
2023-04-09T04:25:09.174Z,20.10
2023-04-09T04:27:43.896Z,20.20
2023-04-09T04:30:17.501Z,19.48
2023-04-09T04:33:01.167Z,20.95
2023-04-09T04:35:38.851Z,20.23
2023-04-09T04:38:13.624Z,20.08
2023-04-09T04:40:45.508Z,22.00
2023-04-09T04:43:17.328Z,21.08
2023-04-09T04:45:49.199Z,19.67
2023-04-09T04:48:21.688Z,21.33
2023-04-09T04:50:58.540Z,20.77
2023-04-09T04:53:34.661Z,20.58
2023-04-09T04:56:16.727Z,20.48
2023-04-09T04:59:06.051Z,21.15
2023-04-09T05:01:50.194Z,21.30
2023-04-09T05:04:21.983Z,20.85
2023-04-09T05:06:53.736Z,20.77
2023-04-09T05:09:27.851Z,19.88
2023-04-09T05:12:17.875Z,19.70
2023-04-09T05:14:53.587Z,21.55
2023-04-09T05:17:26.045Z,19.83
2023-04-09T05:19:58.531Z,21.30
2023-04-09T05:22:38.270Z,21.35
2023-04-09T05:25:10.840Z,21.30
2023-04-09T05:27:47.344Z,20.83
2023-04-09T05:30:19.902Z,21.30
2023-04-09T05:32:51.770Z,20.90
2023-04-09T05:35:23.683Z,20.52
2023-04-09T05:37:55.639Z,19.73
2023-04-09T05:40:27.417Z,20.33
2023-04-09T05:42:59.791Z,20.17
2023-04-09T05:48:18.367Z,20.73
2023-04-09T05:50:55.588Z,20.45
2023-04-09T05:53:32.105Z,20.88
2023-04-09T05:56:04.152Z,20.05
2023-04-09T05:58:51.416Z,21.23
2023-04-09T06:01:23.230Z,20.63
2023-04-09T06:03:57.708Z,21.77
2023-04-09T06:06:30.017Z,20.05
2023-04-09T06:09:01.860Z,20.95
2023-04-09T06:11:34.512Z,21.02
2023-04-09T06:14:07.291Z,20.15
2023-04-09T06:16:39.000Z,20.13
2023-04-09T06:19:12.442Z,19.60
2023-04-09T06:21:44.224Z,20.83
2023-04-09T06:24:16.031Z,20.95
2023-04-09T06:26:47.702Z,20.55
2023-04-09T06:29:19.514Z,20.23
2023-04-09T06:31:51.320Z,20.25
2023-04-09T06:34:23.072Z,20.63
2023-04-09T06:36:54.807Z,20.85
2023-04-09T06:39:26.478Z,20.65
2023-04-09T06:41:58.144Z,20.20
2023-04-09T06:44:41.371Z,20.00
2023-04-09T06:47:13.039Z,19.48
2023-04-09T06:49:44.708Z,20.90
2023-04-09T06:52:16.517Z,20.00
2023-04-09T06:54:48.197Z,20.48
2023-04-09T06:57:19.881Z,20.85
2023-04-09T06:59:51.654Z,20.85
2023-04-09T07:02:23.531Z,21.48
2023-04-09T07:04:55.445Z,21.45
2023-04-09T07:07:27.151Z,21.33
2023-04-09T07:09:58.906Z,19.63
2023-04-09T07:12:32.396Z,21.40
2023-04-09T07:15:06.539Z,20.30
2023-04-09T07:17:38.464Z,21.08
2023-04-09T07:20:10.815Z,20.85
2023-04-09T07:22:42.504Z,21.15
2023-04-09T07:25:15.366Z,20.27
2023-04-09T07:27:47.212Z,20.42
2023-04-09T07:30:19.016Z,20.38
2023-04-09T07:32:50.903Z,20.85
2023-04-09T07:35:23.778Z,19.42
2023-04-09T07:37:55.880Z,20.58
2023-04-09T07:40:27.660Z,20.95
2023-04-09T07:42:59.352Z,20.67
2023-04-09T07:45:31.107Z,20.17
2023-04-09T07:48:02.830Z,20.85
2023-04-09T07:50:34.767Z,21.27
2023-04-09T07:53:06.474Z,21.58
2023-04-09T07:55:38.216Z,21.10
2023-04-09T07:58:10.200Z,20.00
2023-04-09T08:00:42.100Z,20.60
2023-04-09T08:03:14.275Z,20.55
2023-04-09T08:05:46.202Z,20.08
2023-04-09T08:08:17.989Z,20.20
2023-04-09T08:10:49.726Z,20.10
2023-04-09T08:13:24.246Z,20.00
2023-04-09T08:15:56.058Z,20.17
2023-04-09T08:18:28.410Z,21.48
2023-04-09T08:21:04.747Z,20.88
2023-04-09T08:23:36.499Z,20.45
2023-04-09T08:26:08.209Z,19.67
2023-04-09T08:28:39.954Z,20.08
2023-04-09T08:31:11.769Z,20.10
2023-04-09T08:33:43.502Z,21.60
2023-04-09T08:36:16.066Z,19.63
2023-04-09T08:38:48.791Z,20.95
2023-04-09T08:41:22.029Z,19.42
2023-04-09T08:43:58.206Z,19.80
2023-04-09T08:46:32.167Z,18.67
2023-04-09T08:49:04.043Z,21.25
2023-04-09T08:51:35.934Z,20.27
2023-04-09T08:54:08.017Z,18.77
2023-04-09T08:56:39.741Z,20.13
2023-04-09T08:59:11.505Z,19.05
2023-04-09T09:01:43.367Z,19.85
2023-04-09T09:04:15.573Z,18.58
2023-04-09T09:06:47.400Z,18.08
2023-04-09T09:09:19.083Z,18.60
2023-04-09T09:11:52.035Z,19.25
2023-04-09T09:14:23.804Z,17.75
2023-04-09T09:16:55.536Z,18.13
2023-04-09T09:19:27.188Z,18.38
2023-04-09T09:22:06.661Z,17.63
2023-04-09T09:24:52.891Z,18.77
2023-04-09T09:27:39.306Z,17.95
2023-04-09T09:30:24.703Z,19.00
2023-04-09T09:33:09.752Z,19.52
2023-04-09T09:35:51.560Z,19.67
2023-04-09T09:38:24.560Z,19.95
2023-04-09T09:40:56.734Z,20.10
2023-04-09T09:43:42.239Z,19.88
2023-04-09T09:46:14.948Z,19.20
2023-04-09T09:48:46.893Z,18.45
2023-04-09T09:51:19.727Z,20.58
2023-04-09T09:53:54.651Z,18.52
2023-04-09T09:56:34.754Z,19.55
2023-04-09T09:59:11.019Z,18.45
2023-04-09T10:01:44.058Z,18.98
2023-04-09T10:04:17.402Z,18.77
2023-04-09T10:06:52.160Z,18.20
2023-04-09T10:09:27.890Z,18.98
2023-04-09T10:14:33.737Z,17.75
2023-04-09T10:17:05.852Z,19.05
2023-04-09T10:19:46.784Z,18.90
2023-04-09T10:22:25.659Z,18.33
2023-04-09T10:24:58.164Z,19.48
2023-04-09T10:27:29.928Z,18.85
2023-04-09T10:30:01.970Z,19.48
2023-04-09T10:32:36.283Z,19.40
2023-04-09T10:35:09.628Z,19.25
2023-04-09T10:37:50.718Z,18.90
2023-04-09T10:40:22.516Z,18.50
2023-04-09T10:42:56.385Z,18.58
2023-04-09T10:45:40.712Z,18.83
2023-04-09T10:48:14.103Z,18.70
2023-04-09T10:50:46.358Z,16.90
2023-04-09T10:53:23.770Z,16.83
2023-04-09T10:55:56.330Z,16.90
2023-04-09T10:58:28.127Z,15.45
2023-04-09T11:01:01.746Z,16.08
2023-04-09T11:03:42.968Z,16.37
2023-04-09T11:06:20.737Z,16.10
2023-04-09T11:08:52.582Z,16.63
2023-04-09T11:11:28.313Z,16.08
2023-04-09T11:14:03.275Z,16.23
2023-04-09T11:16:34.991Z,15.07
2023-04-09T11:19:06.813Z,14.15
2023-04-09T11:21:46.250Z,12.98
2023-04-09T11:24:19.054Z,13.85
2023-04-09T11:26:51.301Z,14.13
2023-04-09T11:29:23.206Z,13.95
2023-04-09T11:31:54.999Z,13.38
2023-04-09T11:34:29.717Z,14.10
2023-04-09T11:39:38.852Z,12.63
2023-04-09T11:42:18.108Z,12.90
2023-04-09T11:44:50.392Z,12.60
2023-04-09T11:47:22.513Z,13.40
2023-04-09T11:49:54.449Z,14.35
2023-04-09T11:52:27.960Z,13.75
2023-04-09T11:55:04.600Z,14.60
2023-04-09T11:57:46.898Z,15.68
2023-04-09T12:00:21.293Z,15.20
2023-04-09T12:03:04.640Z,15.00
2023-04-09T12:05:38.424Z,14.45
2023-04-09T12:08:12.054Z,13.65
2023-04-09T12:10:44.550Z,13.90
2023-04-09T12:13:16.795Z,15.23
2023-04-09T12:15:50.162Z,14.82
2023-04-09T12:18:23.441Z,15.48
2023-04-09T12:20:55.219Z,17.35
2023-04-09T12:23:26.916Z,17.90
2023-04-09T12:26:02.654Z,17.02
2023-04-09T12:28:34.440Z,17.15
2023-04-09T12:31:09.904Z,17.98
2023-04-09T12:33:42.700Z,17.60
2023-04-09T12:36:14.416Z,18.00
2023-04-09T12:38:46.172Z,18.05
2023-04-09T12:41:17.936Z,18.80
2023-04-09T12:43:49.931Z,18.75
2023-04-09T12:46:21.890Z,17.13
2023-04-09T12:48:53.958Z,17.38
2023-04-09T12:51:25.891Z,16.08
2023-04-09T12:53:57.581Z,16.40
2023-04-09T12:56:29.879Z,17.55
2023-04-09T12:59:01.924Z,18.15
2023-04-09T13:01:33.765Z,17.88
2023-04-09T13:04:05.778Z,19.10
2023-04-09T13:06:40.002Z,19.75
2023-04-09T13:09:11.757Z,17.65
2023-04-09T13:11:43.534Z,18.40
2023-04-09T13:14:15.675Z,19.08
2023-04-09T13:16:52.467Z,18.80
2023-04-09T13:19:24.230Z,17.90
2023-04-09T13:21:56.302Z,18.27
2023-04-09T13:24:28.082Z,18.08
2023-04-09T13:26:59.917Z,18.05
2023-04-09T13:29:32.014Z,18.33
2023-04-09T13:32:07.257Z,18.73
2023-04-09T13:34:39.664Z,17.25
2023-04-09T13:37:11.533Z,17.15
2023-04-09T13:39:44.752Z,17.27
2023-04-09T13:42:17.130Z,17.30
2023-04-09T13:44:48.814Z,16.80
2023-04-09T13:47:21.151Z,16.08
2023-04-09T13:49:53.319Z,15.38
2023-04-09T13:52:26.836Z,17.60
2023-04-09T13:55:01.397Z,15.80
2023-04-09T13:57:33.161Z,14.30
2023-04-09T14:00:05.913Z,16.00
2023-04-09T14:02:38.310Z,16.27
2023-04-09T14:05:11.528Z,15.85
2023-04-09T14:07:43.260Z,15.82
2023-04-09T14:10:15.888Z,16.83
2023-04-09T14:12:47.636Z,16.42
2023-04-09T14:15:19.492Z,17.42
2023-04-09T14:17:51.360Z,17.85
2023-04-09T14:20:24.673Z,17.42
2023-04-09T14:22:56.452Z,18.48
2023-04-09T14:25:28.186Z,17.27
2023-04-09T14:28:00.086Z,18.33
2023-04-09T14:30:31.762Z,17.92
2023-04-09T14:33:03.801Z,17.80
2023-04-09T14:35:35.831Z,17.33
2023-04-09T14:38:07.775Z,17.85
2023-04-09T14:40:39.488Z,16.98
2023-04-09T14:43:11.204Z,17.15
2023-04-09T14:45:42.930Z,18.13
2023-04-09T14:48:14.633Z,17.80
2023-04-09T14:50:46.421Z,17.60
2023-04-09T14:53:21.072Z,17.40
2023-04-09T14:58:24.377Z,16.95
2023-04-09T15:00:56.770Z,16.88
2023-04-09T15:03:28.758Z,16.88
2023-04-09T15:06:00.683Z,16.30
2023-04-09T15:08:32.408Z,16.95
2023-04-09T15:11:04.327Z,17.00
2023-04-09T15:13:36.057Z,17.08
2023-04-09T15:16:08.037Z,17.08
2023-04-09T15:18:39.842Z,18.13
2023-04-09T15:21:11.602Z,17.85
2023-04-09T15:23:43.417Z,17.17
2023-04-09T15:26:15.367Z,17.33
2023-04-09T15:28:47.246Z,18.27
2023-04-09T15:31:19.540Z,17.42
2023-04-09T15:33:51.345Z,17.58
2023-04-09T15:36:23.064Z,17.48
2023-04-09T15:38:55.245Z,18.23
2023-04-09T15:41:27.133Z,16.83
2023-04-09T15:43:58.871Z,16.48
2023-04-09T15:46:32.578Z,16.47
2023-04-09T15:49:04.918Z,16.83
2023-04-09T15:51:36.651Z,16.27
2023-04-09T15:54:08.421Z,16.38
2023-04-09T15:56:40.380Z,16.35
2023-04-09T15:59:12.217Z,14.38
2023-04-09T16:01:44.289Z,14.15
2023-04-09T16:04:16.181Z,14.15
2023-04-09T16:06:48.314Z,14.55
2023-04-09T16:09:19.983Z,14.73
2023-04-09T16:11:51.825Z,14.23
2023-04-09T16:14:23.661Z,14.43
2023-04-09T16:16:55.910Z,13.95
2023-04-09T16:19:27.757Z,12.15
2023-04-09T16:21:59.524Z,13.35
2023-04-09T16:24:32.367Z,13.82
2023-04-09T16:27:04.132Z,13.60
2023-04-09T16:29:36.010Z,13.52
2023-04-09T16:32:10.954Z,14.73
2023-04-09T16:34:42.684Z,13.68
2023-04-09T16:37:14.471Z,13.50
2023-04-09T16:39:46.240Z,12.93
2023-04-09T16:42:18.241Z,14.40
2023-04-09T16:44:50.056Z,14.88
2023-04-09T16:47:21.824Z,14.98
2023-04-09T16:49:53.554Z,13.88
2023-04-09T16:52:25.999Z,12.38
2023-04-09T16:54:57.754Z,13.27
2023-04-09T16:57:29.422Z,13.30
2023-04-09T17:00:01.684Z,13.57
2023-04-09T17:02:34.396Z,13.25
2023-04-09T17:05:07.670Z,13.38
2023-04-09T17:07:39.524Z,14.38
2023-04-09T17:10:11.563Z,13.32
2023-04-09T17:12:43.607Z,13.60
2023-04-09T17:15:15.533Z,14.32
2023-04-09T17:17:49.505Z,14.13
2023-04-09T17:20:24.984Z,13.27
2023-04-09T17:22:56.855Z,12.63
2023-04-09T17:25:29.400Z,12.13
2023-04-09T17:28:01.736Z,12.82
2023-04-09T17:30:33.561Z,11.73
2023-04-09T17:33:05.491Z,12.88
2023-04-09T17:35:37.371Z,13.27
2023-04-09T17:38:09.218Z,13.93
2023-04-09T17:40:41.069Z,13.75
2023-04-09T17:43:14.183Z,15.50
2023-04-09T17:45:46.151Z,14.30
2023-04-09T17:48:18.011Z,15.10
2023-04-09T17:50:50.182Z,14.23
2023-04-09T17:53:22.375Z,14.65
2023-04-09T17:55:54.124Z,14.75
2023-04-09T17:58:26.083Z,14.15
2023-04-09T18:00:59.532Z,13.45
2023-04-09T18:03:31.678Z,13.02
2023-04-09T18:06:03.886Z,12.65
2023-04-09T18:08:36.860Z,12.18
2023-04-09T18:11:13.192Z,11.40
2023-04-09T18:13:45.481Z,11.50
2023-04-09T18:16:19.552Z,10.95
2023-04-09T18:18:54.086Z,11.02
2023-04-09T18:21:27.070Z,10.70
2023-04-09T18:23:59.216Z,11.88
2023-04-09T18:26:31.792Z,10.18
2023-04-09T18:29:03.667Z,10.55
2023-04-09T18:31:35.677Z,10.70
2023-04-09T18:34:07.471Z,10.15
2023-04-09T18:36:42.866Z,10.90
2023-04-09T18:39:15.241Z,10.73
2023-04-09T18:41:47.120Z,9.40
2023-04-09T18:44:18.810Z,9.57
2023-04-09T18:46:50.662Z,9.60
2023-04-09T18:49:22.497Z,9.73
2023-04-09T18:51:54.772Z,9.82
2023-04-09T18:54:26.557Z,9.85
2023-04-09T18:56:58.367Z,9.82
2023-04-09T18:59:31.611Z,10.05
2023-04-09T19:02:05.147Z,10.05
2023-04-09T19:04:40.028Z,10.83
2023-04-09T19:07:12.187Z,10.55
2023-04-09T19:09:44.603Z,10.20
2023-04-09T19:12:17.308Z,11.30
2023-04-09T19:14:49.043Z,10.75
2023-04-09T19:17:21.334Z,11.70
2023-04-09T19:19:53.144Z,12.75
2023-04-09T19:22:24.949Z,11.70
2023-04-09T19:24:56.640Z,12.35
2023-04-09T19:27:28.581Z,12.25
2023-04-09T19:30:01.183Z,11.85
2023-04-09T19:32:36.090Z,11.05
2023-04-09T19:35:08.385Z,11.52
2023-04-09T19:37:40.544Z,11.93
2023-04-09T19:40:15.474Z,11.95
2023-04-09T19:42:47.218Z,12.15
2023-04-09T19:45:18.946Z,11.10
2023-04-09T19:47:50.740Z,12.32
2023-04-09T19:50:22.754Z,12.15
2023-04-09T19:52:54.997Z,11.82
2023-04-09T19:55:26.881Z,12.15
2023-04-09T19:57:58.938Z,12.80
2023-04-09T20:00:30.787Z,12.13
2023-04-09T20:03:03.236Z,12.77
2023-04-09T20:05:35.257Z,13.23
2023-04-09T20:08:12.246Z,12.75
2023-04-09T20:10:47.371Z,13.30
2023-04-09T20:13:22.057Z,13.70
2023-04-09T20:15:53.764Z,12.95
2023-04-09T20:18:25.594Z,13.90
2023-04-09T20:20:57.371Z,14.25
2023-04-09T20:23:30.200Z,14.25
2023-04-09T20:26:02.673Z,15.05
2023-04-09T20:28:35.185Z,14.48
2023-04-09T20:31:07.781Z,13.95
2023-04-09T20:33:39.494Z,14.18
2023-04-09T20:36:15.914Z,15.13
2023-04-09T20:38:49.466Z,15.27
2023-04-09T20:41:21.216Z,14.60
2023-04-09T20:43:52.975Z,16.27
2023-04-09T20:46:24.788Z,15.63
2023-04-09T20:48:56.554Z,15.82
2023-04-09T20:51:28.374Z,15.77
2023-04-09T20:54:00.360Z,14.93
2023-04-09T20:56:32.157Z,15.40
2023-04-09T20:59:03.946Z,15.52
2023-04-09T21:01:36.193Z,15.73
2023-04-09T21:04:08.958Z,16.23
2023-04-09T21:06:41.145Z,15.27
2023-04-09T21:09:12.857Z,15.68
2023-04-09T21:11:44.637Z,15.82
2023-04-09T21:14:16.372Z,15.02
2023-04-09T21:16:49.195Z,15.75
2023-04-09T21:19:21.046Z,16.00
2023-04-09T21:21:52.862Z,14.95
2023-04-09T21:24:24.636Z,16.05
2023-04-09T21:26:56.853Z,15.45
2023-04-09T21:29:28.592Z,15.85
2023-04-09T21:32:01.015Z,15.93
2023-04-09T21:34:32.979Z,16.27
2023-04-09T21:37:04.720Z,16.90
2023-04-09T21:39:36.511Z,16.95
2023-04-09T21:42:08.847Z,17.35
2023-04-09T21:44:40.558Z,16.90
2023-04-09T21:47:13.094Z,16.60
2023-04-09T21:49:46.432Z,16.67
2023-04-09T21:52:18.249Z,16.67
2023-04-09T21:54:50.031Z,16.63
2023-04-09T21:57:22.666Z,15.95
2023-04-09T21:59:54.431Z,15.82
2023-04-09T22:02:27.576Z,17.23
2023-04-09T22:05:00.005Z,18.45
2023-04-09T22:07:31.864Z,16.42
2023-04-09T22:10:03.721Z,15.77
2023-04-09T22:12:37.160Z,17.08
2023-04-09T22:15:09.429Z,17.52
2023-04-09T22:17:41.660Z,18.05
2023-04-09T22:20:14.098Z,17.50
2023-04-09T22:22:45.847Z,17.73
2023-04-09T22:25:17.584Z,18.10
2023-04-09T22:27:53.294Z,17.30
2023-04-09T22:30:25.045Z,16.80
2023-04-09T22:32:56.927Z,17.50
2023-04-09T22:35:28.674Z,17.88
2023-04-09T22:38:00.412Z,17.10
2023-04-09T22:40:32.118Z,17.92
2023-04-09T22:43:04.792Z,16.85
2023-04-09T22:45:36.771Z,17.52
2023-04-09T22:48:08.597Z,17.40
2023-04-09T22:50:40.380Z,19.38
2023-04-09T22:53:12.316Z,17.08
2023-04-09T22:55:46.808Z,18.08
2023-04-09T22:58:19.300Z,19.92
2023-04-09T23:00:51.050Z,19.10
2023-04-09T23:03:22.969Z,19.08
2023-04-09T23:05:57.322Z,18.40
2023-04-09T23:08:29.051Z,19.00
2023-04-09T23:11:01.183Z,18.75
2023-04-09T23:13:32.920Z,20.30
2023-04-09T23:16:09.217Z,19.27
2023-04-09T23:18:41.051Z,19.33
2023-04-09T23:21:13.015Z,19.75
2023-04-09T23:23:44.763Z,19.60
2023-04-09T23:26:16.592Z,19.85
2023-04-09T23:28:48.400Z,20.73
2023-04-09T23:31:21.220Z,21.88
2023-04-09T23:33:53.293Z,21.60
2023-04-09T23:36:26.128Z,21.20
2023-04-09T23:38:57.799Z,21.77
2023-04-09T23:41:29.563Z,21.50
2023-04-09T23:44:01.379Z,21.45
2023-04-09T23:46:33.067Z,20.42
2023-04-09T23:49:04.816Z,21.40
2023-04-09T23:51:39.248Z,20.98
2023-04-09T23:54:11.045Z,20.50
2023-04-09T23:56:44.148Z,21.02
2023-04-09T23:59:15.879Z,21.02
